Time;durP1;ratioP1;P1;durP2;ratioP2;P2;SDS_P1;SDS_P2;PMS_P1;PMS_P2;Temp;Humidity;BMP_temperature;BMP_pressure;BME280_temperature;BME280_humidity;BME280_pressure;Samples;Min_cycle;Max_cycle;Signal;HPM_P1;HPM_P2
2022/09/12 00:01:59;;;;;;;12.40;10.32;;;14.50;99.90;;;;;;5111801;28;20092;-72
2022/09/12 00:04:27;;;;;;;12.10;9.95;;;14.50;99.90;;;;;;5100573;28;20052;-72
2022/09/12 00:06:54;;;;;;;12.02;10.38;;;14.50;99.90;;;;;;5094947;28;20121;-72
2022/09/12 00:09:21;;;;;;;12.05;9.57;;;14.40;99.90;;;;;;5114030;28;20048;-72
2022/09/12 00:11:48;;;;;;;12.35;9.85;;;14.40;99.90;;;;;;5113416;28;20054;-72
2022/09/12 00:14:17;;;;;;;13.43;10.55;;;14.40;99.90;;;;;;5113424;28;20051;-72
2022/09/12 00:16:45;;;;;;;14.95;9.88;;;14.40;99.90;;;;;;5096764;27;20090;-72
2022/09/12 00:19:12;;;;;;;12.20;10.23;;;14.30;99.90;;;;;;5115220;27;20051;-73
2022/09/12 00:21:40;;;;;;;13.30;10.95;;;14.30;99.90;;;;;;5115742;27;20043;-73
2022/09/12 00:24:08;;;;;;;14.25;11.23;;;14.30;99.90;;;;;;5134293;27;20050;-73
2022/09/12 00:26:35;;;;;;;12.60;10.98;;;14.30;99.90;;;;;;5115047;27;20055;-74
2022/09/12 00:29:02;;;;;;;15.05;11.38;;;14.30;99.90;;;;;;5134032;27;20051;-73
2022/09/12 00:31:29;;;;;;;11.90;10.00;;;14.20;99.90;;;;;;5115676;27;20043;-73
2022/09/12 00:33:59;;;;;;;12.50;10.07;;;14.20;99.90;;;;;;5104749;28;20056;-74
2022/09/12 00:36:28;;;;;;;15.93;11.02;;;14.20;99.90;;;;;;5094649;28;20086;-73
2022/09/12 00:38:55;;;;;;;13.82;11.95;;;14.20;99.90;;;;;;5113689;28;20047;-73
2022/09/12 00:41:24;;;;;;;14.32;10.10;;;14.10;99.90;;;;;;5112820;28;20083;-73
2022/09/12 00:43:53;;;;;;;15.07;10.75;;;14.10;99.90;;;;;;5112589;28;20051;-73
2022/09/12 00:46:29;;;;;;;11.63;9.98;;;14.10;99.90;;;;;;5115523;28;20051;-74
2022/09/12 00:49:00;;;;;;;11.82;10.07;;;14.00;99.90;;;;;;5114610;28;20100;-73
2022/09/12 00:51:30;;;;;;;11.05;9.93;;;14.00;99.90;;;;;;5133923;28;20047;-73
2022/09/12 00:53:58;;;;;;;19.30;14.00;;;14.00;99.90;;;;;;5133810;28;20134;-73
2022/09/12 00:56:26;;;;;;;16.90;12.63;;;14.00;99.90;;;;;;5115040;28;20506;-73
2022/09/12 00:58:58;;;;;;;16.50;14.48;;;14.00;99.90;;;;;;5111916;28;20062;-73
2022/09/12 01:01:25;;;;;;;15.93;13.77;;;14.00;99.90;;;;;;5112808;28;20051;-72
2022/09/12 01:03:52;;;;;;;16.67;14.38;;;14.00;99.90;;;;;;5111765;28;20101;-72
2022/09/12 01:06:24;;;;;;;19.15;15.75;;;14.00;99.90;;;;;;5111018;28;20063;-72
2022/09/12 01:08:52;;;;;;;17.75;14.18;;;14.00;99.90;;;;;;5112327;28;20423;-72
2022/09/12 01:11:21;;;;;;;20.63;14.88;;;14.00;99.90;;;;;;5113916;27;20093;-72
2022/09/12 01:13:48;;;;;;;18.00;14.60;;;14.00;99.90;;;;;;5137850;27;20055;-72
2022/09/12 01:16:16;;;;;;;17.92;15.48;;;14.00;99.90;;;;;;5118804;27;20055;-73
2022/09/12 01:18:53;;;;;;;17.00;14.00;;;14.00;99.90;;;;;;5137522;27;20051;-73
2022/09/12 01:21:30;;;;;;;15.35;13.00;;;14.00;99.90;;;;;;5118884;27;20096;-72
2022/09/12 01:24:44;;;;;;;18.00;13.77;;;14.00;99.90;;;;;;5137133;27;20051;-72
2022/09/12 01:27:40;;;;;;;14.02;12.52;;;13.90;99.90;;;;;;5071501;27;20059;-73
2022/09/12 01:30:50;;;;;;;16.92;13.98;;;13.90;99.90;;;;;;5137071;27;20047;-72
2022/09/12 01:33:50;;;;;;;14.13;12.13;;;13.90;99.90;;;;;;5122014;27;20047;-73
2022/09/12 01:36:37;;;;;;;15.90;13.38;;;13.90;99.90;;;;;;5136490;27;20043;-74
2022/09/12 01:39:06;;;;;;;18.85;14.65;;;13.80;99.90;;;;;;5137206;27;20047;-72
2022/09/12 01:41:44;;;;;;;18.77;14.30;;;13.80;99.90;;;;;;5110947;27;20046;-74
2022/09/12 01:44:19;;;;;;;18.40;14.70;;;13.80;99.90;;;;;;5115182;28;20059;-73
2022/09/12 01:46:54;;;;;;;16.08;13.85;;;13.80;99.90;;;;;;5115011;28;20060;-73
2022/09/12 01:49:25;;;;;;;16.80;13.38;;;13.70;99.90;;;;;;5115595;28;20071;-73
2022/09/12 01:51:57;;;;;;;18.88;14.40;;;13.70;99.90;;;;;;5115606;28;20560;-72
2022/09/12 01:54:30;;;;;;;19.40;15.57;;;13.70;99.90;;;;;;5115659;28;20063;-73
2022/09/12 01:57:01;;;;;;;16.75;14.95;;;13.70;99.90;;;;;;5109869;28;20052;-73
2022/09/12 01:59:33;;;;;;;18.40;15.93;;;13.70;99.90;;;;;;5097654;28;20051;-72
2022/09/12 02:02:08;;;;;;;19.38;17.10;;;13.70;99.90;;;;;;5117279;27;20127;-72
2022/09/12 02:04:42;;;;;;;22.65;18.23;;;13.70;99.90;;;;;;5114638;28;20055;-73
2022/09/12 02:07:14;;;;;;;21.27;16.40;;;13.70;99.90;;;;;;5115927;28;20052;-74
2022/09/12 02:09:45;;;;;;;23.38;18.33;;;13.70;99.90;;;;;;5114916;28;20108;-75
2022/09/12 02:12:18;;;;;;;21.13;17.80;;;13.70;99.90;;;;;;5113811;28;20055;-73
2022/09/12 02:14:51;;;;;;;21.42;18.83;;;13.70;99.90;;;;;;5097465;28;20120;-73
2022/09/12 02:17:22;;;;;;;23.85;19.08;;;13.60;99.90;;;;;;5115025;28;20055;-73
2022/09/12 02:19:55;;;;;;;27.80;19.20;;;13.70;99.90;;;;;;5130188;27;20406;-73
2022/09/12 02:22:26;;;;;;;24.58;19.00;;;13.60;99.90;;;;;;5118627;27;20426;-73
2022/09/12 02:24:57;;;;;;;22.67;19.48;;;13.60;99.90;;;;;;5136031;27;20088;-73
2022/09/12 02:27:30;;;;;;;25.08;19.33;;;13.70;99.90;;;;;;5135689;27;20093;-73
2022/09/12 02:29:57;;;;;;;23.40;19.30;;;13.60;99.90;;;;;;5118332;27;20062;-73
2022/09/12 02:32:31;;;;;;;24.17;19.58;;;13.60;99.90;;;;;;5113824;28;20048;-73
2022/09/12 02:35:06;;;;;;;23.92;18.45;;;13.60;99.90;;;;;;5097075;28;20097;-73
2022/09/12 02:37:43;;;;;;;22.88;18.83;;;13.60;99.90;;;;;;5115636;28;20070;-74
2022/09/12 02:40:11;;;;;;;26.10;18.45;;;13.60;99.90;;;;;;5114870;28;20048;-73
2022/09/12 02:42:38;;;;;;;23.35;19.33;;;13.60;99.90;;;;;;5115099;28;20047;-67
2022/09/12 02:45:06;;;;;;;26.20;20.35;;;13.50;99.90;;;;;;5096991;28;20051;-73
2022/09/12 02:47:37;;;;;;;25.60;20.58;;;13.50;99.90;;;;;;5108248;27;20063;-75
2022/09/12 02:50:07;;;;;;;25.50;20.50;;;13.60;99.90;;;;;;5117287;27;20051;-72
2022/09/12 02:52:34;;;;;;;26.33;20.57;;;13.60;99.90;;;;;;5113320;28;20054;-72
2022/09/12 02:55:02;;;;;;;27.85;20.95;;;13.50;99.90;;;;;;5096416;28;20530;-71
2022/09/12 02:57:29;;;;;;;26.08;20.33;;;13.60;99.90;;;;;;5115107;28;20510;-72
2022/09/12 03:00:00;;;;;;;27.70;20.50;;;13.50;99.90;;;;;;5115340;28;20059;-72
2022/09/12 03:02:35;;;;;;;24.58;19.45;;;13.50;99.90;;;;;;5096166;28;20491;-72
2022/09/12 03:05:26;;;;;;;27.25;21.13;;;13.60;99.90;;;;;;5096938;28;20108;-72
2022/09/12 03:08:10;;;;;;;28.90;21.45;;;13.60;99.90;;;;;;5112682;27;20112;-71
2022/09/12 03:10:47;;;;;;;29.15;21.08;;;13.50;99.90;;;;;;5117096;27;20124;-72
2022/09/12 03:13:23;;;;;;;27.48;21.38;;;13.50;99.90;;;;;;5117297;27;20054;-72
2022/09/12 03:16:01;;;;;;;26.15;20.52;;;13.50;99.90;;;;;;5134857;27;20436;-71
2022/09/12 03:18:42;;;;;;;29.73;21.17;;;13.50;99.90;;;;;;5135293;27;20456;-72
2022/09/12 03:21:19;;;;;;;23.80;20.00;;;13.50;99.90;;;;;;5112900;28;20082;-71
2022/09/12 03:23:57;;;;;;;30.27;20.90;;;13.40;99.90;;;;;;5095963;28;20051;-72
2022/09/12 03:26:29;;;;;;;29.10;21.52;;;13.40;99.90;;;;;;5114592;28;20491;-72
2022/09/12 03:28:58;;;;;;;27.52;21.27;;;13.40;99.90;;;;;;5095888;28;20123;-71
2022/09/12 03:31:25;;;;;;;26.02;19.75;;;13.40;99.90;;;;;;5096316;28;20055;-71
2022/09/12 03:33:52;;;;;;;26.08;19.85;;;13.40;99.90;;;;;;5096174;28;20527;-71
2022/09/12 03:36:24;;;;;;;29.13;20.55;;;13.30;99.90;;;;;;5098893;27;20058;-71
2022/09/12 03:38:51;;;;;;;24.15;20.20;;;13.30;99.90;;;;;;5116566;27;20086;-70
2022/09/12 03:41:18;;;;;;;24.02;18.85;;;13.20;99.90;;;;;;5116519;27;20503;-71
2022/09/12 03:43:45;;;;;;;25.65;20.15;;;13.20;99.90;;;;;;5115673;27;20047;-72
2022/09/12 03:46:12;;;;;;;28.00;20.17;;;13.20;99.90;;;;;;5105144;28;20051;-70
2022/09/12 03:48:39;;;;;;;22.92;19.20;;;13.10;99.90;;;;;;5095825;28;20510;-71
2022/09/12 03:51:08;;;;;;;27.27;19.48;;;13.10;99.90;;;;;;5113450;28;20052;-72
2022/09/12 03:53:36;;;;;;;26.88;19.70;;;13.00;99.90;;;;;;5113997;28;20567;-72
2022/09/12 03:56:07;;;;;;;27.65;20.60;;;13.00;99.90;;;;;;5113782;28;20100;-71
2022/09/12 03:58:35;;;;;;;27.60;21.10;;;13.00;99.90;;;;;;5113219;28;20135;-67
2022/09/12 04:01:06;;;;;;;26.90;21.15;;;13.00;99.90;;;;;;5114048;28;20122;-70
2022/09/12 04:03:33;;;;;;;30.77;20.67;;;13.00;99.90;;;;;;5113935;28;20104;-71
2022/09/12 04:06:00;;;;;;;27.15;20.27;;;13.00;99.90;;;;;;5111883;28;20051;-71
2022/09/12 04:08:27;;;;;;;30.77;21.70;;;12.90;99.90;;;;;;5113968;28;20048;-72
2022/09/12 04:11:02;;;;;;;29.73;20.75;;;12.90;99.90;;;;;;5113818;28;20055;-71
2022/09/12 04:13:29;;;;;;;28.83;21.88;;;12.90;99.90;;;;;;5113741;28;20105;-71
2022/09/12 04:15:57;;;;;;;30.70;21.95;;;12.90;99.90;;;;;;5107434;28;20112;-71
2022/09/12 04:18:24;;;;;;;30.50;21.67;;;12.90;99.90;;;;;;5094757;28;20105;-71
2022/09/12 04:20:51;;;;;;;26.58;20.48;;;12.90;99.90;;;;;;5113303;28;20048;-71
2022/09/12 04:23:18;;;;;;;31.63;22.17;;;12.90;99.90;;;;;;5113247;28;20055;-71
2022/09/12 04:25:45;;;;;;;32.55;22.33;;;12.90;99.90;;;;;;5094974;28;20059;-71
2022/09/12 04:28:13;;;;;;;28.30;21.30;;;12.90;99.90;;;;;;5095258;28;20052;-71
2022/09/12 04:30:40;;;;;;;31.90;22.08;;;12.90;99.90;;;;;;5121277;27;20051;-74
2022/09/12 04:33:07;;;;;;;30.38;22.50;;;12.90;99.90;;;;;;5132799;27;20055;-73
2022/09/12 04:35:35;;;;;;;34.05;22.90;;;12.90;99.90;;;;;;5115714;28;20494;-67
2022/09/12 04:38:02;;;;;;;33.38;23.42;;;12.90;99.90;;;;;;5115514;28;20053;-74
2022/09/12 04:40:29;;;;;;;32.33;22.38;;;12.90;99.90;;;;;;5115047;28;20123;-75
2022/09/12 04:42:56;;;;;;;31.58;22.60;;;13.00;99.90;;;;;;5115524;28;20104;-74
2022/09/12 04:45:24;;;;;;;32.33;22.42;;;13.00;99.90;;;;;;5114725;28;20059;-74
2022/09/12 04:47:52;;;;;;;31.85;22.75;;;13.00;99.90;;;;;;5100218;28;20105;-76
2022/09/12 04:50:19;;;;;;;36.97;24.50;;;13.00;99.90;;;;;;5099202;28;20051;-76
2022/09/12 04:52:50;;;;;;;33.38;22.90;;;13.10;99.90;;;;;;5111885;28;20048;-75
2022/09/12 04:55:17;;;;;;;35.97;24.88;;;13.10;99.90;;;;;;5100815;28;20471;-74
2022/09/12 04:57:44;;;;;;;38.47;23.80;;;13.20;99.90;;;;;;5126686;28;20051;-79
2022/09/12 05:00:13;;;;;;;32.17;22.60;;;13.20;99.90;;;;;;5113011;28;20047;-76
2022/09/12 05:02:42;;;;;;;31.77;22.70;;;13.30;99.90;;;;;;5102961;28;20039;-77
2022/09/12 05:05:10;;;;;;;33.35;23.75;;;13.30;99.90;;;;;;5111416;28;20051;-77
2022/09/12 05:07:37;;;;;;;30.88;21.85;;;13.40;99.90;;;;;;5093796;28;20055;-78
2022/09/12 05:10:04;;;;;;;29.00;22.00;;;13.40;99.90;;;;;;5110507;28;20535;-74
2022/09/12 05:12:31;;;;;;;28.88;21.55;;;13.40;99.90;;;;;;5114874;28;20134;-74
2022/09/12 05:14:58;;;;;;;31.13;22.02;;;13.50;99.90;;;;;;5110714;28;20044;-74
2022/09/12 05:17:25;;;;;;;29.92;21.98;;;13.50;99.90;;;;;;5091717;28;20077;-75
2022/09/12 05:19:53;;;;;;;26.55;20.88;;;13.60;99.90;;;;;;5113122;28;20048;-75
2022/09/12 05:22:20;;;;;;;32.17;22.20;;;13.60;99.90;;;;;;5092198;28;20043;-77
2022/09/12 05:24:47;;;;;;;28.15;20.60;;;13.60;99.90;;;;;;5110726;28;20044;-75
2022/09/12 05:27:14;;;;;;;27.40;20.92;;;13.70;99.90;;;;;;5092449;28;20096;-75
2022/09/12 05:29:41;;;;;;;29.73;21.75;;;13.80;99.90;;;;;;5094274;28;20495;-75
2022/09/12 05:32:11;;;;;;;29.30;21.38;;;13.80;99.90;;;;;;5102160;28;20046;-75
2022/09/12 05:34:38;;;;;;;30.58;22.13;;;13.90;99.90;;;;;;5110967;28;20044;-76
2022/09/12 05:37:07;;;;;;;31.90;21.13;;;13.90;99.90;;;;;;5109394;28;20048;-75
2022/09/12 05:39:33;;;;;;;29.75;20.45;;;13.90;99.90;;;;;;5111020;28;20055;-74
2022/09/12 05:42:01;;;;;;;27.55;20.02;;;14.00;99.90;;;;;;5110249;28;20112;-75
2022/09/12 05:44:28;;;;;;;28.95;20.63;;;14.00;99.90;;;;;;5093716;28;20039;-74
2022/09/12 05:46:55;;;;;;;28.48;20.55;;;14.00;99.90;;;;;;5111367;28;20047;-74
2022/09/12 05:49:22;;;;;;;28.30;21.15;;;14.10;99.90;;;;;;5097852;28;20044;-74
2022/09/12 05:51:49;;;;;;;29.13;20.58;;;14.10;99.90;;;;;;5093908;28;20134;-74
2022/09/12 05:54:20;;;;;;;29.38;21.88;;;14.10;99.90;;;;;;5113644;28;20066;-73
2022/09/12 05:56:47;;;;;;;27.92;20.17;;;14.10;99.90;;;;;;5094059;28;20054;-75
2022/09/12 05:59:17;;;;;;;29.08;21.55;;;14.10;99.90;;;;;;5102596;28;20052;-78
2022/09/12 06:01:44;;;;;;;28.20;19.50;;;14.20;99.90;;;;;;5121881;27;20096;-74
2022/09/12 06:04:12;;;;;;;28.70;20.70;;;14.20;99.90;;;;;;5098893;28;20089;-74
2022/09/12 06:06:42;;;;;;;26.50;20.13;;;14.20;99.90;;;;;;5120410;27;20112;-74
2022/09/12 06:09:09;;;;;;;25.33;19.30;;;14.30;99.90;;;;;;5114315;28;20051;-74
2022/09/12 06:11:40;;;;;;;29.95;20.80;;;14.30;99.90;;;;;;5115673;27;20130;-74
2022/09/12 06:14:08;;;;;;;25.45;19.38;;;14.40;99.90;;;;;;5100266;27;20046;-73
2022/09/12 06:16:36;;;;;;;31.30;19.80;;;14.40;99.90;;;;;;5117449;27;20074;-73
2022/09/12 06:19:06;;;;;;;24.70;17.67;;;14.40;99.90;;;;;;5116241;27;20043;-73
2022/09/12 06:21:34;;;;;;;28.60;20.67;;;14.50;99.90;;;;;;5117545;27;20047;-74
2022/09/12 06:24:01;;;;;;;27.83;19.77;;;14.60;99.90;;;;;;5100269;27;20508;-73
2022/09/12 06:26:28;;;;;;;26.67;19.58;;;14.60;99.90;;;;;;5114714;27;20103;-71
2022/09/12 06:28:59;;;;;;;31.25;20.75;;;14.60;99.90;;;;;;5113579;28;20055;-72
2022/09/12 06:31:28;;;;;;;26.88;20.40;;;14.60;99.90;;;;;;5109089;28;20108;-70
2022/09/12 06:33:57;;;;;;;27.08;19.73;;;14.70;99.90;;;;;;5083546;28;20106;-71
2022/09/12 06:36:26;;;;;;;26.45;19.45;;;14.70;99.90;;;;;;5071546;28;20071;-72
2022/09/12 06:38:58;;;;;;;29.73;21.00;;;14.70;99.90;;;;;;5073827;28;20087;-71
2022/09/12 06:41:25;;;;;;;32.30;21.83;;;14.70;99.90;;;;;;5072752;28;20058;-71
2022/09/12 06:43:52;;;;;;;31.75;21.55;;;14.80;99.90;;;;;;5075413;28;20041;-72
